Terminal Aerodrome Forecast
Issued by NWS

Home | Current Version | Previous Version | Text Only | Print | Product List | Glossary On
Versions: 1 2 3 4 5 6 7 8 9 10 11 12 13
823
FTUS42 TJSJ 200522
TAFISX
TAF
TISX 200522Z 2006/2106 05004KT P6SM VCSH FEW017 BKN030 OVC100
     FM201200 11010KT P6SM VCSH SCT025
     FM202300 07006KT P6SM VCSH FEW030=

USA.gov is the U.S. government's official web portal to all federal, state and local government web resources and services.